sensor_id;sensor_type;location;lat;lon;timestamp;temperature;humidity
65239;SHT30;51827;51.186;6.926;2022-10-31T00:00:14;21.07;64.11
65239;SHT30;51827;51.186;6.926;2022-10-31T00:01:20;21.09;64.08
65239;SHT30;51827;51.186;6.926;2022-10-31T00:02:20;21.07;64.12
65239;SHT30;51827;51.186;6.926;2022-10-31T00:03:20;21.07;64.12
65239;SHT30;51827;51.186;6.926;2022-10-31T00:04:21;21.06;64.12
65239;SHT30;51827;51.186;6.926;2022-10-31T00:05:21;21.07;64.08
65239;SHT30;51827;51.186;6.926;2022-10-31T00:06:22;21.07;64.09
65239;SHT30;51827;51.186;6.926;2022-10-31T00:07:22;21.06;64.09
65239;SHT30;51827;51.186;6.926;2022-10-31T00:08:22;21.06;64.07
65239;SHT30;51827;51.186;6.926;2022-10-31T00:09:22;21.05;64.09
65239;SHT30;51827;51.186;6.926;2022-10-31T00:10:23;21.06;64.12
65239;SHT30;51827;51.186;6.926;2022-10-31T00:11:24;21.06;64.10
65239;SHT30;51827;51.186;6.926;2022-10-31T00:12:25;21.05;64.08
65239;SHT30;51827;51.186;6.926;2022-10-31T00:13:26;21.06;64.04
65239;SHT30;51827;51.186;6.926;2022-10-31T00:14:26;21.05;64.03
65239;SHT30;51827;51.186;6.926;2022-10-31T00:15:27;21.05;64.04
65239;SHT30;51827;51.186;6.926;2022-10-31T00:16:28;21.05;64.04
65239;SHT30;51827;51.186;6.926;2022-10-31T00:17:28;21.06;64.04
65239;SHT30;51827;51.186;6.926;2022-10-31T00:18:28;21.05;64.05
65239;SHT30;51827;51.186;6.926;2022-10-31T00:19:28;21.05;64.04
65239;SHT30;51827;51.186;6.926;2022-10-31T00:20:29;21.06;64.01
65239;SHT30;51827;51.186;6.926;2022-10-31T00:21:30;21.03;64.01
65239;SHT30;51827;51.186;6.926;2022-10-31T00:22:31;21.03;64.06
65239;SHT30;51827;51.186;6.926;2022-10-31T00:23:31;21.05;64.05
65239;SHT30;51827;51.186;6.926;2022-10-31T00:24:31;21.05;64.00
65239;SHT30;51827;51.186;6.926;2022-10-31T00:25:39;21.05;64.01
65239;SHT30;51827;51.186;6.926;2022-10-31T00:26:39;21.05;63.96
65239;SHT30;51827;51.186;6.926;2022-10-31T00:27:39;21.03;64.01
65239;SHT30;51827;51.186;6.926;2022-10-31T00:28:40;21.02;64.03
65239;SHT30;51827;51.186;6.926;2022-10-31T00:29:40;21.00;64.03
65239;SHT30;51827;51.186;6.926;2022-10-31T00:30:40;21.03;64.01
65239;SHT30;51827;51.186;6.926;2022-10-31T00:31:40;21.05;64.00
65239;SHT30;51827;51.186;6.926;2022-10-31T00:32:40;21.02;63.98
65239;SHT30;51827;51.186;6.926;2022-10-31T00:33:41;21.02;63.94
65239;SHT30;51827;51.186;6.926;2022-10-31T00:34:42;21.03;63.97
65239;SHT30;51827;51.186;6.926;2022-10-31T00:35:42;21.00;64.03
65239;SHT30;51827;51.186;6.926;2022-10-31T00:36:42;21.00;63.99
65239;SHT30;51827;51.186;6.926;2022-10-31T00:37:42;21.02;63.99
65239;SHT30;51827;51.186;6.926;2022-10-31T00:38:43;21.05;63.99
65239;SHT30;51827;51.186;6.926;2022-10-31T00:39:44;21.00;63.93
65239;SHT30;51827;51.186;6.926;2022-10-31T00:40:44;20.99;63.99
65239;SHT30;51827;51.186;6.926;2022-10-31T00:41:44;21.02;63.98
65239;SHT30;51827;51.186;6.926;2022-10-31T00:42:45;21.02;63.96
65239;SHT30;51827;51.186;6.926;2022-10-31T00:43:45;21.00;63.95
65239;SHT30;51827;51.186;6.926;2022-10-31T00:44:45;21.00;63.93
65239;SHT30;51827;51.186;6.926;2022-10-31T00:45:45;20.99;63.95
65239;SHT30;51827;51.186;6.926;2022-10-31T00:46:46;20.99;63.90
65239;SHT30;51827;51.186;6.926;2022-10-31T00:47:46;21.02;63.94
65239;SHT30;51827;51.186;6.926;2022-10-31T00:48:46;20.99;63.94
65239;SHT30;51827;51.186;6.926;2022-10-31T00:49:46;20.99;63.92
65239;SHT30;51827;51.186;6.926;2022-10-31T00:50:47;21.02;63.91
65239;SHT30;51827;51.186;6.926;2022-10-31T00:51:48;21.02;63.91
65239;SHT30;51827;51.186;6.926;2022-10-31T00:52:48;21.00;63.93
65239;SHT30;51827;51.186;6.926;2022-10-31T00:53:48;21.00;63.90
65239;SHT30;51827;51.186;6.926;2022-10-31T00:54:48;20.99;63.88
65239;SHT30;51827;51.186;6.926;2022-10-31T00:55:48;21.02;63.85
65239;SHT30;51827;51.186;6.926;2022-10-31T00:56:49;21.00;63.88
65239;SHT30;51827;51.186;6.926;2022-10-31T00:57:49;20.99;63.87
65239;SHT30;51827;51.186;6.926;2022-10-31T00:58:49;20.99;63.89
65239;SHT30;51827;51.186;6.926;2022-10-31T00:59:49;21.02;63.91
65239;SHT30;51827;51.186;6.926;2022-10-31T01:00:50;21.02;63.91
65239;SHT30;51827;51.186;6.926;2022-10-31T01:01:50;21.00;63.88
65239;SHT30;51827;51.186;6.926;2022-10-31T01:02:50;20.99;63.86
65239;SHT30;51827;51.186;6.926;2022-10-31T01:03:51;21.00;63.87
65239;SHT30;51827;51.186;6.926;2022-10-31T01:04:51;20.99;63.84
65239;SHT30;51827;51.186;6.926;2022-10-31T01:06:11;20.98;63.85
65239;SHT30;51827;51.186;6.926;2022-10-31T01:07:12;20.99;63.87
65239;SHT30;51827;51.186;6.926;2022-10-31T01:08:12;20.98;63.85
65239;SHT30;51827;51.186;6.926;2022-10-31T01:09:12;20.99;63.86
65239;SHT30;51827;51.186;6.926;2022-10-31T01:10:13;20.99;63.88
65239;SHT30;51827;51.186;6.926;2022-10-31T01:11:19;20.99;63.86
65239;SHT30;51827;51.186;6.926;2022-10-31T01:12:20;20.98;63.81
65239;SHT30;51827;51.186;6.926;2022-10-31T01:13:20;20.96;63.83
65239;SHT30;51827;51.186;6.926;2022-10-31T01:14:21;20.99;63.80
65239;SHT30;51827;51.186;6.926;2022-10-31T01:15:22;20.98;63.81
65239;SHT30;51827;51.186;6.926;2022-10-31T01:16:24;20.98;63.80
65239;SHT30;51827;51.186;6.926;2022-10-31T01:17:25;20.96;63.84
65239;SHT30;51827;51.186;6.926;2022-10-31T01:18:26;20.99;63.79
65239;SHT30;51827;51.186;6.926;2022-10-31T01:19:27;20.96;63.81
65239;SHT30;51827;51.186;6.926;2022-10-31T01:20:27;20.96;63.82
65239;SHT30;51827;51.186;6.926;2022-10-31T01:21:28;20.96;63.83
65239;SHT30;51827;51.186;6.926;2022-10-31T01:22:29;20.98;63.79
65239;SHT30;51827;51.186;6.926;2022-10-31T01:23:29;20.98;63.80
65239;SHT30;51827;51.186;6.926;2022-10-31T01:24:30;20.93;63.80
65239;SHT30;51827;51.186;6.926;2022-10-31T01:25:30;20.98;63.77
65239;SHT30;51827;51.186;6.926;2022-10-31T01:26:32;20.96;63.79
65239;SHT30;51827;51.186;6.926;2022-10-31T01:27:33;20.98;63.80
65239;SHT30;51827;51.186;6.926;2022-10-31T01:28:35;20.96;63.76
65239;SHT30;51827;51.186;6.926;2022-10-31T01:29:35;20.98;63.78
65239;SHT30;51827;51.186;6.926;2022-10-31T01:30:36;20.98;63.73
65239;SHT30;51827;51.186;6.926;2022-10-31T01:31:38;20.96;63.73
65239;SHT30;51827;51.186;6.926;2022-10-31T01:32:39;20.96;63.78
65239;SHT30;51827;51.186;6.926;2022-10-31T01:33:39;20.96;63.72
65239;SHT30;51827;51.186;6.926;2022-10-31T01:34:39;20.96;63.75
65239;SHT30;51827;51.186;6.926;2022-10-31T01:35:40;20.96;63.75
65239;SHT30;51827;51.186;6.926;2022-10-31T01:36:40;20.98;63.73
65239;SHT30;51827;51.186;6.926;2022-10-31T01:37:40;20.96;63.71
65239;SHT30;51827;51.186;6.926;2022-10-31T01:38:41;20.95;63.74
65239;SHT30;51827;51.186;6.926;2022-10-31T01:39:41;20.96;63.72
65239;SHT30;51827;51.186;6.926;2022-10-31T01:40:41;20.95;63.74
65239;SHT30;51827;51.186;6.926;2022-10-31T01:41:45;20.96;63.71
65239;SHT30;51827;51.186;6.926;2022-10-31T01:42:45;20.95;63.72
65239;SHT30;51827;51.186;6.926;2022-10-31T01:43:56;20.96;63.71
65239;SHT30;51827;51.186;6.926;2022-10-31T01:44:59;20.95;63.71
65239;SHT30;51827;51.186;6.926;2022-10-31T01:46:00;20.93;63.71
65239;SHT30;51827;51.186;6.926;2022-10-31T01:47:19;20.96;63.69
65239;SHT30;51827;51.186;6.926;2022-10-31T01:48:22;20.95;63.72
65239;SHT30;51827;51.186;6.926;2022-10-31T01:49:31;20.95;63.69
65239;SHT30;51827;51.186;6.926;2022-10-31T01:50:36;20.92;63.69
65239;SHT30;51827;51.186;6.926;2022-10-31T01:51:41;20.93;63.68
65239;SHT30;51827;51.186;6.926;2022-10-31T01:52:44;20.93;63.67
65239;SHT30;51827;51.186;6.926;2022-10-31T01:53:46;20.91;63.71
65239;SHT30;51827;51.186;6.926;2022-10-31T01:54:58;20.93;63.71
65239;SHT30;51827;51.186;6.926;2022-10-31T01:56:00;20.93;63.66
65239;SHT30;51827;51.186;6.926;2022-10-31T01:57:01;20.92;63.69
65239;SHT30;51827;51.186;6.926;2022-10-31T01:58:15;20.92;63.72
65239;SHT30;51827;51.186;6.926;2022-10-31T01:59:19;20.93;63.69
65239;SHT30;51827;51.186;6.926;2022-10-31T02:00:20;20.92;63.67
65239;SHT30;51827;51.186;6.926;2022-10-31T02:01:21;20.93;63.68
65239;SHT30;51827;51.186;6.926;2022-10-31T02:02:22;20.93;63.70
65239;SHT30;51827;51.186;6.926;2022-10-31T02:03:23;20.92;63.69
65239;SHT30;51827;51.186;6.926;2022-10-31T02:04:25;20.89;63.72
65239;SHT30;51827;51.186;6.926;2022-10-31T02:05:26;20.92;63.71
65239;SHT30;51827;51.186;6.926;2022-10-31T02:06:38;20.92;63.66
65239;SHT30;51827;51.186;6.926;2022-10-31T02:07:45;20.92;63.67
65239;SHT30;51827;51.186;6.926;2022-10-31T02:08:48;20.91;63.67
65239;SHT30;51827;51.186;6.926;2022-10-31T02:09:50;20.89;63.62
65239;SHT30;51827;51.186;6.926;2022-10-31T02:10:51;20.92;63.64
65239;SHT30;51827;51.186;6.926;2022-10-31T02:11:53;20.91;63.66
65239;SHT30;51827;51.186;6.926;2022-10-31T02:12:57;20.92;63.66
65239;SHT30;51827;51.186;6.926;2022-10-31T02:13:59;20.89;63.65
65239;SHT30;51827;51.186;6.926;2022-10-31T02:15:00;20.92;63.67
65239;SHT30;51827;51.186;6.926;2022-10-31T02:16:00;20.92;63.63
65239;SHT30;51827;51.186;6.926;2022-10-31T02:17:01;20.92;63.62
65239;SHT30;51827;51.186;6.926;2022-10-31T02:18:02;20.92;63.63
65239;SHT30;51827;51.186;6.926;2022-10-31T02:19:02;20.91;63.62
65239;SHT30;51827;51.186;6.926;2022-10-31T02:21:15;20.92;63.62
65239;SHT30;51827;51.186;6.926;2022-10-31T02:22:34;20.89;63.60
65239;SHT30;51827;51.186;6.926;2022-10-31T02:24:46;20.89;63.65
65239;SHT30;51827;51.186;6.926;2022-10-31T02:26:23;20.91;63.61
65239;SHT30;51827;51.186;6.926;2022-10-31T02:34:30;20.92;63.55
65239;SHT30;51827;51.186;6.926;2022-10-31T02:35:55;20.88;63.58
65239;SHT30;51827;51.186;6.926;2022-10-31T02:37:16;20.88;63.56
65239;SHT30;51827;51.186;6.926;2022-10-31T02:38:27;20.88;63.58
65239;SHT30;51827;51.186;6.926;2022-10-31T02:39:38;20.89;63.58
65239;SHT30;51827;51.186;6.926;2022-10-31T02:41:06;20.88;63.56
65239;SHT30;51827;51.186;6.926;2022-10-31T02:42:24;20.89;63.62
65239;SHT30;51827;51.186;6.926;2022-10-31T02:47:22;20.88;63.58
65239;SHT30;51827;51.186;6.926;2022-10-31T02:48:27;20.86;63.54
65239;SHT30;51827;51.186;6.926;2022-10-31T02:49:34;20.86;63.55
65239;SHT30;51827;51.186;6.926;2022-10-31T02:50:39;20.85;63.59
65239;SHT30;51827;51.186;6.926;2022-10-31T02:51:40;20.91;63.53
65239;SHT30;51827;51.186;6.926;2022-10-31T02:52:40;20.88;63.55
65239;SHT30;51827;51.186;6.926;2022-10-31T02:53:41;20.88;63.54
65239;SHT30;51827;51.186;6.926;2022-10-31T02:54:42;20.86;63.55
65239;SHT30;51827;51.186;6.926;2022-10-31T02:55:50;20.86;63.54
65239;SHT30;51827;51.186;6.926;2022-10-31T02:57:10;20.86;63.52
65239;SHT30;51827;51.186;6.926;2022-10-31T02:58:14;20.88;63.54
65239;SHT30;51827;51.186;6.926;2022-10-31T02:59:15;20.88;63.50
65239;SHT30;51827;51.186;6.926;2022-10-31T03:00:16;20.85;63.47
65239;SHT30;51827;51.186;6.926;2022-10-31T03:01:41;20.86;63.52
65239;SHT30;51827;51.186;6.926;2022-10-31T03:08:22;20.86;63.47
65239;SHT30;51827;51.186;6.926;2022-10-31T03:11:44;20.85;63.46
65239;SHT30;51827;51.186;6.926;2022-10-31T03:14:11;20.82;63.49
65239;SHT30;51827;51.186;6.926;2022-10-31T03:15:25;20.85;63.47
65239;SHT30;51827;51.186;6.926;2022-10-31T03:18:04;20.83;63.42
65239;SHT30;51827;51.186;6.926;2022-10-31T03:19:06;20.83;63.43
65239;SHT30;51827;51.186;6.926;2022-10-31T03:20:09;20.83;63.43
65239;SHT30;51827;51.186;6.926;2022-10-31T03:21:13;20.82;63.43
65239;SHT30;51827;51.186;6.926;2022-10-31T03:22:25;20.85;63.47
65239;SHT30;51827;51.186;6.926;2022-10-31T03:23:28;20.85;63.47
65239;SHT30;51827;51.186;6.926;2022-10-31T03:24:37;20.83;63.43
65239;SHT30;51827;51.186;6.926;2022-10-31T03:25:39;20.83;63.39
65239;SHT30;51827;51.186;6.926;2022-10-31T03:26:46;20.85;63.43
65239;SHT30;51827;51.186;6.926;2022-10-31T03:27:48;20.85;63.42
65239;SHT30;51827;51.186;6.926;2022-10-31T03:28:53;20.83;63.39
65239;SHT30;51827;51.186;6.926;2022-10-31T03:29:56;20.83;63.41
65239;SHT30;51827;51.186;6.926;2022-10-31T03:30:59;20.83;63.38
65239;SHT30;51827;51.186;6.926;2022-10-31T03:33:04;20.85;63.41
65239;SHT30;51827;51.186;6.926;2022-10-31T03:34:07;20.83;63.40
65239;SHT30;51827;51.186;6.926;2022-10-31T03:35:09;20.82;63.36
65239;SHT30;51827;51.186;6.926;2022-10-31T03:36:13;20.83;63.36
65239;SHT30;51827;51.186;6.926;2022-10-31T03:37:17;20.81;63.33
65239;SHT30;51827;51.186;6.926;2022-10-31T03:38:19;20.82;63.37
65239;SHT30;51827;51.186;6.926;2022-10-31T03:39:21;20.82;63.38
65239;SHT30;51827;51.186;6.926;2022-10-31T03:40:24;20.83;63.33
65239;SHT30;51827;51.186;6.926;2022-10-31T03:41:28;20.82;63.34
65239;SHT30;51827;51.186;6.926;2022-10-31T03:42:34;20.82;63.33
65239;SHT30;51827;51.186;6.926;2022-10-31T03:43:41;20.82;63.36
65239;SHT30;51827;51.186;6.926;2022-10-31T03:44:46;20.83;63.33
65239;SHT30;51827;51.186;6.926;2022-10-31T03:45:48;20.83;63.36
65239;SHT30;51827;51.186;6.926;2022-10-31T03:46:49;20.82;63.33
65239;SHT30;51827;51.186;6.926;2022-10-31T03:47:50;20.82;63.32
65239;SHT30;51827;51.186;6.926;2022-10-31T03:48:51;20.83;63.34
65239;SHT30;51827;51.186;6.926;2022-10-31T03:49:51;20.83;63.31
65239;SHT30;51827;51.186;6.926;2022-10-31T03:51:00;20.82;63.30
65239;SHT30;51827;51.186;6.926;2022-10-31T03:52:18;20.82;63.33
65239;SHT30;51827;51.186;6.926;2022-10-31T03:54:54;20.81;63.30
65239;SHT30;51827;51.186;6.926;2022-10-31T03:56:21;20.82;63.30
65239;SHT30;51827;51.186;6.926;2022-10-31T03:59:00;20.81;63.29
65239;SHT30;51827;51.186;6.926;2022-10-31T04:00:11;20.81;63.28
65239;SHT30;51827;51.186;6.926;2022-10-31T04:01:15;20.81;63.28
65239;SHT30;51827;51.186;6.926;2022-10-31T04:02:22;20.81;63.31
65239;SHT30;51827;51.186;6.926;2022-10-31T04:03:30;20.81;63.30
65239;SHT30;51827;51.186;6.926;2022-10-31T04:04:32;20.81;63.29
65239;SHT30;51827;51.186;6.926;2022-10-31T04:05:34;20.81;63.31
65239;SHT30;51827;51.186;6.926;2022-10-31T04:06:37;20.81;63.32
65239;SHT30;51827;51.186;6.926;2022-10-31T04:07:41;20.78;63.31
65239;SHT30;51827;51.186;6.926;2022-10-31T04:08:56;20.79;63.29
65239;SHT30;51827;51.186;6.926;2022-10-31T04:09:58;20.81;63.28
65239;SHT30;51827;51.186;6.926;2022-10-31T04:11:02;20.79;63.27
65239;SHT30;51827;51.186;6.926;2022-10-31T04:12:04;20.81;63.26
65239;SHT30;51827;51.186;6.926;2022-10-31T04:13:10;20.79;63.32
65239;SHT30;51827;51.186;6.926;2022-10-31T04:14:11;20.79;63.31
65239;SHT30;51827;51.186;6.926;2022-10-31T04:15:12;20.79;63.29
65239;SHT30;51827;51.186;6.926;2022-10-31T04:16:14;20.81;63.30
65239;SHT30;51827;51.186;6.926;2022-10-31T04:17:18;20.79;63.29
65239;SHT30;51827;51.186;6.926;2022-10-31T04:18:19;20.78;63.31
65239;SHT30;51827;51.186;6.926;2022-10-31T04:19:19;20.81;63.28
65239;SHT30;51827;51.186;6.926;2022-10-31T04:20:29;20.79;63.26
65239;SHT30;51827;51.186;6.926;2022-10-31T04:21:30;20.79;63.26
65239;SHT30;51827;51.186;6.926;2022-10-31T04:22:30;20.78;63.29
65239;SHT30;51827;51.186;6.926;2022-10-31T04:23:31;20.79;63.25
65239;SHT30;51827;51.186;6.926;2022-10-31T04:24:32;20.78;63.26
65239;SHT30;51827;51.186;6.926;2022-10-31T04:25:32;20.78;63.22
65239;SHT30;51827;51.186;6.926;2022-10-31T04:26:32;20.81;63.24
65239;SHT30;51827;51.186;6.926;2022-10-31T04:27:32;20.81;63.22
65239;SHT30;51827;51.186;6.926;2022-10-31T04:28:33;20.78;63.28
65239;SHT30;51827;51.186;6.926;2022-10-31T04:29:33;20.79;63.26
65239;SHT30;51827;51.186;6.926;2022-10-31T04:30:33;20.78;63.25
65239;SHT30;51827;51.186;6.926;2022-10-31T04:31:33;20.76;63.23
65239;SHT30;51827;51.186;6.926;2022-10-31T04:32:33;20.78;63.23
65239;SHT30;51827;51.186;6.926;2022-10-31T04:33:34;20.81;63.22
65239;SHT30;51827;51.186;6.926;2022-10-31T04:34:34;20.81;63.18
65239;SHT30;51827;51.186;6.926;2022-10-31T04:35:34;20.79;63.20
65239;SHT30;51827;51.186;6.926;2022-10-31T04:36:35;20.79;63.22
65239;SHT30;51827;51.186;6.926;2022-10-31T04:37:35;20.79;63.17
65239;SHT30;51827;51.186;6.926;2022-10-31T04:38:35;20.78;63.20
65239;SHT30;51827;51.186;6.926;2022-10-31T04:39:35;20.78;63.20
65239;SHT30;51827;51.186;6.926;2022-10-31T04:40:36;20.79;63.20
65239;SHT30;51827;51.186;6.926;2022-10-31T04:41:36;20.79;63.24
65239;SHT30;51827;51.186;6.926;2022-10-31T04:42:36;20.78;63.18
65239;SHT30;51827;51.186;6.926;2022-10-31T04:43:36;20.76;63.23
65239;SHT30;51827;51.186;6.926;2022-10-31T04:44:37;20.78;63.20
65239;SHT30;51827;51.186;6.926;2022-10-31T04:45:37;20.76;63.23
65239;SHT30;51827;51.186;6.926;2022-10-31T04:46:37;20.78;63.18
65239;SHT30;51827;51.186;6.926;2022-10-31T04:47:38;20.76;63.20
65239;SHT30;51827;51.186;6.926;2022-10-31T04:48:38;20.76;63.19
65239;SHT30;51827;51.186;6.926;2022-10-31T04:49:38;20.76;63.17
65239;SHT30;51827;51.186;6.926;2022-10-31T04:50:38;20.79;63.20
65239;SHT30;51827;51.186;6.926;2022-10-31T04:51:39;20.75;63.20
65239;SHT30;51827;51.186;6.926;2022-10-31T04:52:40;20.76;63.19
65239;SHT30;51827;51.186;6.926;2022-10-31T04:53:40;20.76;63.20
65239;SHT30;51827;51.186;6.926;2022-10-31T04:54:41;20.78;63.16
65239;SHT30;51827;51.186;6.926;2022-10-31T04:55:41;20.75;63.17
65239;SHT30;51827;51.186;6.926;2022-10-31T04:56:41;20.76;63.19
65239;SHT30;51827;51.186;6.926;2022-10-31T04:57:46;20.75;63.13
65239;SHT30;51827;51.186;6.926;2022-10-31T04:58:46;20.78;63.15
65239;SHT30;51827;51.186;6.926;2022-10-31T04:59:47;20.76;63.15
65239;SHT30;51827;51.186;6.926;2022-10-31T05:00:47;20.75;63.14
65239;SHT30;51827;51.186;6.926;2022-10-31T05:01:47;20.76;63.14
65239;SHT30;51827;51.186;6.926;2022-10-31T05:02:52;20.79;63.15
65239;SHT30;51827;51.186;6.926;2022-10-31T05:03:53;20.75;63.14
65239;SHT30;51827;51.186;6.926;2022-10-31T05:04:53;20.73;63.12
65239;SHT30;51827;51.186;6.926;2022-10-31T05:05:54;20.76;63.10
65239;SHT30;51827;51.186;6.926;2022-10-31T05:06:54;20.79;63.12
65239;SHT30;51827;51.186;6.926;2022-10-31T05:07:55;20.75;63.14
65239;SHT30;51827;51.186;6.926;2022-10-31T05:08:55;20.76;63.17
65239;SHT30;51827;51.186;6.926;2022-10-31T05:09:55;20.76;63.14
65239;SHT30;51827;51.186;6.926;2022-10-31T05:10:59;20.76;63.14
65239;SHT30;51827;51.186;6.926;2022-10-31T05:11:59;20.75;63.14
65239;SHT30;51827;51.186;6.926;2022-10-31T05:13:01;20.76;63.11
65239;SHT30;51827;51.186;6.926;2022-10-31T05:14:02;20.76;63.09
65239;SHT30;51827;51.186;6.926;2022-10-31T05:15:03;20.78;63.10
65239;SHT30;51827;51.186;6.926;2022-10-31T05:16:04;20.76;63.10
65239;SHT30;51827;51.186;6.926;2022-10-31T05:17:04;20.73;63.07
65239;SHT30;51827;51.186;6.926;2022-10-31T05:18:04;20.78;63.06
65239;SHT30;51827;51.186;6.926;2022-10-31T05:19:04;20.78;63.04
65239;SHT30;51827;51.186;6.926;2022-10-31T05:20:05;20.75;63.07
65239;SHT30;51827;51.186;6.926;2022-10-31T05:21:05;20.76;63.07
65239;SHT30;51827;51.186;6.926;2022-10-31T05:22:06;20.78;63.06
65239;SHT30;51827;51.186;6.926;2022-10-31T05:23:06;20.75;63.08
65239;SHT30;51827;51.186;6.926;2022-10-31T05:24:06;20.78;63.08
65239;SHT30;51827;51.186;6.926;2022-10-31T05:25:07;20.76;63.12
65239;SHT30;51827;51.186;6.926;2022-10-31T05:26:07;20.75;63.11
65239;SHT30;51827;51.186;6.926;2022-10-31T05:27:08;20.73;63.09
65239;SHT30;51827;51.186;6.926;2022-10-31T05:28:08;20.75;63.10
65239;SHT30;51827;51.186;6.926;2022-10-31T05:29:08;20.76;63.09
65239;SHT30;51827;51.186;6.926;2022-10-31T05:30:10;20.76;63.07
65239;SHT30;51827;51.186;6.926;2022-10-31T05:31:10;20.76;63.06
65239;SHT30;51827;51.186;6.926;2022-10-31T05:32:11;20.73;63.08
65239;SHT30;51827;51.186;6.926;2022-10-31T05:33:11;20.76;63.05
65239;SHT30;51827;51.186;6.926;2022-10-31T05:34:11;20.76;63.07
65239;SHT30;51827;51.186;6.926;2022-10-31T05:35:14;20.75;63.10
65239;SHT30;51827;51.186;6.926;2022-10-31T05:36:15;20.76;63.11
65239;SHT30;51827;51.186;6.926;2022-10-31T05:37:15;20.76;63.10
65239;SHT30;51827;51.186;6.926;2022-10-31T05:38:15;20.75;63.09
65239;SHT30;51827;51.186;6.926;2022-10-31T05:39:15;20.78;63.12
65239;SHT30;51827;51.186;6.926;2022-10-31T05:40:17;20.76;63.10
65239;SHT30;51827;51.186;6.926;2022-10-31T05:41:17;20.76;63.10
65239;SHT30;51827;51.186;6.926;2022-10-31T05:42:17;20.73;63.12
65239;SHT30;51827;51.186;6.926;2022-10-31T05:43:18;20.76;63.15
65239;SHT30;51827;51.186;6.926;2022-10-31T05:44:18;20.76;63.14
65239;SHT30;51827;51.186;6.926;2022-10-31T05:45:19;20.76;63.15
65239;SHT30;51827;51.186;6.926;2022-10-31T05:46:20;20.75;63.14
65239;SHT30;51827;51.186;6.926;2022-10-31T05:47:20;20.75;63.15
65239;SHT30;51827;51.186;6.926;2022-10-31T05:48:20;20.76;63.12
65239;SHT30;51827;51.186;6.926;2022-10-31T05:49:20;20.76;63.18
65239;SHT30;51827;51.186;6.926;2022-10-31T05:50:21;20.76;63.18
65239;SHT30;51827;51.186;6.926;2022-10-31T05:51:22;20.75;63.17
65239;SHT30;51827;51.186;6.926;2022-10-31T05:52:22;20.73;63.18
65239;SHT30;51827;51.186;6.926;2022-10-31T05:53:22;20.76;63.18
65239;SHT30;51827;51.186;6.926;2022-10-31T05:54:22;20.76;63.15
65239;SHT30;51827;51.186;6.926;2022-10-31T05:55:23;20.72;63.18
65239;SHT30;51827;51.186;6.926;2022-10-31T05:56:23;20.73;63.16
65239;SHT30;51827;51.186;6.926;2022-10-31T05:57:23;20.73;63.23
65239;SHT30;51827;51.186;6.926;2022-10-31T05:58:24;20.76;63.18
65239;SHT30;51827;51.186;6.926;2022-10-31T05:59:24;20.78;63.20
65239;SHT30;51827;51.186;6.926;2022-10-31T06:00:26;20.75;63.19
65239;SHT30;51827;51.186;6.926;2022-10-31T06:01:26;20.73;63.19
65239;SHT30;51827;51.186;6.926;2022-10-31T06:02:26;20.76;63.19
65239;SHT30;51827;51.186;6.926;2022-10-31T06:03:27;20.73;63.24
65239;SHT30;51827;51.186;6.926;2022-10-31T06:04:27;20.75;63.24
65239;SHT30;51827;51.186;6.926;2022-10-31T06:05:28;20.75;63.24
65239;SHT30;51827;51.186;6.926;2022-10-31T06:06:28;20.76;63.23
65239;SHT30;51827;51.186;6.926;2022-10-31T06:07:33;20.75;63.26
65239;SHT30;51827;51.186;6.926;2022-10-31T06:08:34;20.73;63.26
65239;SHT30;51827;51.186;6.926;2022-10-31T06:09:34;20.75;63.24
65239;SHT30;51827;51.186;6.926;2022-10-31T06:10:34;20.76;63.24
65239;SHT30;51827;51.186;6.926;2022-10-31T06:11:34;20.73;63.25
65239;SHT30;51827;51.186;6.926;2022-10-31T06:12:35;20.75;63.24
65239;SHT30;51827;51.186;6.926;2022-10-31T06:13:35;20.73;63.27
65239;SHT30;51827;51.186;6.926;2022-10-31T06:14:36;20.75;63.27
65239;SHT30;51827;51.186;6.926;2022-10-31T06:15:36;20.72;63.27
65239;SHT30;51827;51.186;6.926;2022-10-31T06:16:36;20.76;63.28
65239;SHT30;51827;51.186;6.926;2022-10-31T06:17:36;20.73;63.28
65239;SHT30;51827;51.186;6.926;2022-10-31T06:18:37;20.75;63.25
65239;SHT30;51827;51.186;6.926;2022-10-31T06:19:37;20.76;63.26
65239;SHT30;51827;51.186;6.926;2022-10-31T06:20:37;20.75;63.28
65239;SHT30;51827;51.186;6.926;2022-10-31T06:21:37;20.72;63.27
65239;SHT30;51827;51.186;6.926;2022-10-31T06:22:38;20.75;63.30
65239;SHT30;51827;51.186;6.926;2022-10-31T06:23:38;20.72;63.32
65239;SHT30;51827;51.186;6.926;2022-10-31T06:24:38;20.73;63.33
65239;SHT30;51827;51.186;6.926;2022-10-31T06:25:38;20.72;63.34
65239;SHT30;51827;51.186;6.926;2022-10-31T06:26:39;20.75;63.36
65239;SHT30;51827;51.186;6.926;2022-10-31T06:27:39;20.75;63.34
65239;SHT30;51827;51.186;6.926;2022-10-31T06:28:39;20.75;63.35
65239;SHT30;51827;51.186;6.926;2022-10-31T06:29:39;20.75;63.38
65239;SHT30;51827;51.186;6.926;2022-10-31T06:30:40;20.73;63.38
65239;SHT30;51827;51.186;6.926;2022-10-31T06:31:40;20.73;63.37
65239;SHT30;51827;51.186;6.926;2022-10-31T06:32:40;20.73;63.39
65239;SHT30;51827;51.186;6.926;2022-10-31T06:33:41;20.75;63.40
65239;SHT30;51827;51.186;6.926;2022-10-31T06:34:42;20.76;63.41
65239;SHT30;51827;51.186;6.926;2022-10-31T06:35:47;20.73;63.41
65239;SHT30;51827;51.186;6.926;2022-10-31T06:36:47;20.73;63.43
65239;SHT30;51827;51.186;6.926;2022-10-31T06:37:54;20.75;63.44
65239;SHT30;51827;51.186;6.926;2022-10-31T06:38:54;20.75;63.46
65239;SHT30;51827;51.186;6.926;2022-10-31T06:39:55;20.75;63.43
65239;SHT30;51827;51.186;6.926;2022-10-31T06:40:55;20.72;63.47
65239;SHT30;51827;51.186;6.926;2022-10-31T06:41:55;20.73;63.49
65239;SHT30;51827;51.186;6.926;2022-10-31T06:42:59;20.76;63.43
65239;SHT30;51827;51.186;6.926;2022-10-31T06:44:00;20.73;63.48
65239;SHT30;51827;51.186;6.926;2022-10-31T06:45:00;20.72;63.45
65239;SHT30;51827;51.186;6.926;2022-10-31T06:46:04;20.75;63.49
65239;SHT30;51827;51.186;6.926;2022-10-31T06:47:05;20.75;63.43
65239;SHT30;51827;51.186;6.926;2022-10-31T06:48:06;20.72;63.49
65239;SHT30;51827;51.186;6.926;2022-10-31T06:49:06;20.75;63.48
65239;SHT30;51827;51.186;6.926;2022-10-31T06:50:06;20.75;63.47
65239;SHT30;51827;51.186;6.926;2022-10-31T06:51:07;20.72;63.44
65239;SHT30;51827;51.186;6.926;2022-10-31T06:52:07;20.75;63.45
65239;SHT30;51827;51.186;6.926;2022-10-31T06:53:08;20.75;63.44
65239;SHT30;51827;51.186;6.926;2022-10-31T06:54:08;20.73;63.45
65239;SHT30;51827;51.186;6.926;2022-10-31T06:55:08;20.72;63.46
65239;SHT30;51827;51.186;6.926;2022-10-31T06:56:09;20.73;63.46
65239;SHT30;51827;51.186;6.926;2022-10-31T06:57:09;20.75;63.46
65239;SHT30;51827;51.186;6.926;2022-10-31T06:58:10;20.73;63.47
65239;SHT30;51827;51.186;6.926;2022-10-31T06:59:10;20.72;63.50
65239;SHT30;51827;51.186;6.926;2022-10-31T07:00:11;20.72;63.52
65239;SHT30;51827;51.186;6.926;2022-10-31T07:01:11;20.73;63.46